Terminal Aerodrome Forecast
Issued by NWS

Home | Current Version | Previous Version | Text Only | Print | Product List | Glossary On
Versions: 1 2 3 4 5 6 7 8 9 10 11 12 13 14 15 16 17 18 19 20 21 22 23 24 25 26 27
000
FTUS44 KMAF 222000 AAA
TAFCNM
TAF AMD
KCNM 222017Z 2220/2318 14007KT P6SM OVC024
     FM222200 14009KT P6SM SCT060 SCT200
     FM230100 13014KT P6SM BKN035 PROB30 2305/2308 5SM TSRA BKN030CB
     FM230800 21007KT P6SM SCT200
     FM231700 22015G21KT P6SM SCT200=

USA.gov is the U.S. government's official web portal to all federal, state and local government web resources and services.